TTPP/POS METAR and TAF weather

Enter ICAO airport designator
Station Type Date Time Source
TTPP METAR 2024/06/16 09:10 UTC NOAA

TTPP 160910Z 00000KT 9999 -SHRA BKN016 26/25 Q1013 NOSIG


Station Type Date Time Source
TTPP Decoded METAR 2024/06/16 09:10 UTC NOAA

Piarco International Airport, Trinidad, Trinidad and Tobago (TTPP) 10-37N 061-21W 15M
Jun 16, 2024 - 05:10 AM EDT / 2024.06.16 0910 UTC
Wind: Calm:0
Visibility: greater than 7 mile(s):0
Sky conditions: mostly cloudy
Weather: light rain showers
Temperature: 78 F (26 C)
Dew Point: 77 F (25 C)
Relative Humidity: 94%
Pressure (altimeter): 29.91 in. Hg (1013 hPa)
ob: TTPP 160910Z 00000KT 9999 -SHRA BKN016 26/25 Q1013 NOSIG
cycle: 9

Station Type Date Time Source
TTPP TAF 2024/06/16 06:49 UTC NOAA